Fort Wolters, Texas
Current Conditions -  °F | °C
As of 9:53 PM on Wednesday 26 Nov 2014 (Local Time) from KMWL Reporting Station
Clear Clear  
Wind Chill: 47°   Ceiling: Unl
Heat Index: 47°   Visibility: 10mi
Dew Point: 35°   Wind: 3mph
Humidity: 63%   Direction: 310°NW
Pressure: 30.37"   Gusts: NA
Location:  32.7965°N, 98.1108°W
Report Text: KMWL 270353Z AUTO 31003KT 10SM CLR 08/02 A3037 RMK AO2 SLP282 T00830017
Loading
Personal Weather Stations






























Interactive Weather Map New forecast layout! Learn more

10-Day Weather Forecast

Advertisements
Track Severe Weather on mobile